createdAt,value
2023-04-17T00:01:24.588Z,7.30
2023-04-17T00:03:52.802Z,7.30
2023-04-17T00:06:21.723Z,7.20
2023-04-17T00:08:48.345Z,7.20
2023-04-17T00:11:17.305Z,7.10
2023-04-17T00:13:45.449Z,7.10
2023-04-17T00:16:13.622Z,7.10
2023-04-17T00:18:40.707Z,7.10
2023-04-17T00:21:07.420Z,7.20
2023-04-17T00:23:34.089Z,7.20
2023-04-17T00:26:00.823Z,7.20
2023-04-17T00:28:27.470Z,7.10
2023-04-17T00:30:54.147Z,7.20
2023-04-17T00:33:20.870Z,7.20
2023-04-17T00:35:47.865Z,7.20
2023-04-17T00:38:14.513Z,7.30
2023-04-17T00:40:42.056Z,7.30
2023-04-17T00:43:08.707Z,7.30
2023-04-17T00:45:35.794Z,7.30
2023-04-17T00:48:04.934Z,7.30
2023-04-17T00:50:31.906Z,7.40
2023-04-17T00:52:59.534Z,7.30
2023-04-17T00:55:27.514Z,7.40
2023-04-17T00:57:55.218Z,7.50
2023-04-17T01:00:22.016Z,7.50
2023-04-17T01:02:49.217Z,7.60
2023-04-17T01:05:16.082Z,7.50
2023-04-17T01:07:42.774Z,7.50
2023-04-17T01:10:10.038Z,7.60
2023-04-17T01:12:36.795Z,7.60
2023-04-17T01:15:04.557Z,7.60
2023-04-17T01:17:31.292Z,7.60
2023-04-17T01:19:58.286Z,7.70
2023-04-17T01:22:24.979Z,7.70
2023-04-17T01:24:51.651Z,7.60
2023-04-17T01:27:18.374Z,7.60
2023-04-17T01:29:45.419Z,7.60
2023-04-17T01:32:12.182Z,7.60
2023-04-17T01:34:38.818Z,7.60
2023-04-17T01:37:05.466Z,7.60
2023-04-17T01:39:32.212Z,7.50
2023-04-17T01:41:58.963Z,7.50
2023-04-17T01:44:25.823Z,7.50
2023-04-17T01:46:52.497Z,7.60
2023-04-17T01:49:19.555Z,7.70
2023-04-17T01:51:46.223Z,7.70
2023-04-17T01:54:15.296Z,7.70
2023-04-17T01:56:42.416Z,7.70
2023-04-17T01:59:09.996Z,7.80
2023-04-17T02:01:37.411Z,7.80
2023-04-17T02:04:04.435Z,7.70
2023-04-17T02:06:32.019Z,7.70
2023-04-17T02:08:59.460Z,7.80
2023-04-17T02:11:26.412Z,7.70
2023-04-17T02:13:53.471Z,7.70
2023-04-17T02:16:21.805Z,7.70
2023-04-17T02:18:49.498Z,7.70
2023-04-17T02:21:16.482Z,7.60
2023-04-17T02:23:43.641Z,7.70
2023-04-17T02:26:10.430Z,7.60
2023-04-17T02:28:37.124Z,7.60
2023-04-17T02:31:08.296Z,7.60
2023-04-17T02:33:36.712Z,7.80
2023-04-17T02:36:04.759Z,7.80
2023-04-17T02:38:31.521Z,7.70
2023-04-17T02:40:59.281Z,7.70
2023-04-17T02:43:25.943Z,7.60
2023-04-17T02:45:52.589Z,7.70
2023-04-17T02:48:19.262Z,7.70
2023-04-17T02:50:45.974Z,7.60
2023-04-17T02:53:12.715Z,7.50
2023-04-17T02:55:39.361Z,7.60
2023-04-17T02:58:06.131Z,7.60
2023-04-17T03:00:32.852Z,7.60
2023-04-17T03:02:59.795Z,7.50
2023-04-17T03:05:30.198Z,7.50
2023-04-17T03:08:00.326Z,7.40
2023-04-17T03:10:27.174Z,7.40
2023-04-17T03:12:53.923Z,7.40
2023-04-17T03:15:20.710Z,7.40
2023-04-17T03:17:47.530Z,7.40
2023-04-17T03:20:16.150Z,7.40
2023-04-17T03:22:42.940Z,7.30
2023-04-17T03:25:10.345Z,7.40
2023-04-17T03:27:38.564Z,7.40
2023-04-17T03:30:07.219Z,7.30
2023-04-17T03:32:33.929Z,7.40
2023-04-17T03:35:00.728Z,7.30
2023-04-17T03:37:27.449Z,7.40
2023-04-17T03:39:55.629Z,7.40
2023-04-17T03:42:22.304Z,7.30
2023-04-17T03:44:49.000Z,7.30
2023-04-17T03:47:15.681Z,7.20
2023-04-17T03:49:42.359Z,7.30
2023-04-17T03:52:09.074Z,7.20
2023-04-17T03:54:35.952Z,7.30
2023-04-17T03:57:03.403Z,7.30
2023-04-17T03:59:33.372Z,7.30
2023-04-17T04:02:00.642Z,7.30
2023-04-17T04:04:29.593Z,7.30
2023-04-17T04:06:58.008Z,7.40
2023-04-17T04:09:25.784Z,7.30
2023-04-17T04:11:52.544Z,7.30
2023-04-17T04:14:19.585Z,7.40
2023-04-17T04:16:46.209Z,7.30
2023-04-17T04:19:13.079Z,7.40
2023-04-17T04:21:39.935Z,7.40
2023-04-17T04:24:10.119Z,7.50
2023-04-17T04:26:37.833Z,7.50
2023-04-17T04:29:04.719Z,7.60
2023-04-17T04:31:31.952Z,7.50
2023-04-17T04:33:59.420Z,7.50
2023-04-17T04:36:29.739Z,7.50
2023-04-17T04:38:59.758Z,7.50
2023-04-17T04:41:26.713Z,7.50
2023-04-17T04:43:56.416Z,7.40
2023-04-17T04:46:23.107Z,7.40
2023-04-17T04:48:49.862Z,7.40
2023-04-17T04:51:21.205Z,7.40
2023-04-17T04:53:47.940Z,7.30
2023-04-17T04:56:14.640Z,7.30
2023-04-17T04:58:41.275Z,7.30
2023-04-17T05:01:10.818Z,7.30
2023-04-17T05:03:38.423Z,7.30
2023-04-17T05:06:05.882Z,7.40
2023-04-17T05:08:33.334Z,7.30
2023-04-17T05:10:59.979Z,7.30
2023-04-17T05:13:26.746Z,7.20
2023-04-17T05:15:53.785Z,7.20
2023-04-17T05:18:22.050Z,7.20
2023-04-17T05:20:48.772Z,7.20
2023-04-17T05:23:15.603Z,7.20
2023-04-17T05:25:42.797Z,7.20
2023-04-17T05:28:09.546Z,7.30
2023-04-17T05:30:36.353Z,7.20
2023-04-17T05:33:03.080Z,7.20
2023-04-17T05:35:29.869Z,7.10
2023-04-17T05:37:56.829Z,7.20
2023-04-17T05:40:25.089Z,7.20
2023-04-17T05:42:51.762Z,7.10
2023-04-17T05:45:18.594Z,7.10
2023-04-17T05:47:45.490Z,7.20
2023-04-17T05:50:12.384Z,7.20
2023-04-17T05:52:39.933Z,7.20
2023-04-17T05:55:07.436Z,7.20
2023-04-17T05:57:35.901Z,7.30
2023-04-17T06:00:08.489Z,7.20
2023-04-17T06:02:37.695Z,7.30
2023-04-17T06:05:13.750Z,7.30
2023-04-17T06:07:40.522Z,7.40
2023-04-17T06:10:08.942Z,7.50
2023-04-17T06:12:36.451Z,7.50
2023-04-17T06:15:09.040Z,7.70
2023-04-17T06:17:39.441Z,7.70
2023-04-17T06:20:10.172Z,7.70
2023-04-17T06:22:42.127Z,7.70
2023-04-17T06:25:09.012Z,7.60
2023-04-17T06:27:37.085Z,7.70
2023-04-17T06:30:04.650Z,7.70
2023-04-17T06:32:31.403Z,7.70
2023-04-17T06:35:00.958Z,7.70
2023-04-17T06:37:27.923Z,7.60
2023-04-17T06:39:55.088Z,7.50
2023-04-17T06:42:21.716Z,7.50
2023-04-17T06:44:48.386Z,7.60
2023-04-17T06:47:15.055Z,7.70
2023-04-17T06:49:43.534Z,7.70
2023-04-17T06:52:12.276Z,7.80
2023-04-17T06:54:40.513Z,7.90
2023-04-17T06:57:10.570Z,8.00
2023-04-17T06:59:37.240Z,8.00
2023-04-17T07:02:07.015Z,8.00
2023-04-17T07:04:33.773Z,8.00
2023-04-17T07:07:00.475Z,8.00
2023-04-17T07:09:27.297Z,8.10
2023-04-17T07:11:54.053Z,8.00
2023-04-17T07:14:20.823Z,8.00
2023-04-17T07:16:48.762Z,8.10
2023-04-17T07:19:15.555Z,8.10
2023-04-17T07:21:42.186Z,8.00
2023-04-17T07:24:08.932Z,8.00
2023-04-17T07:26:38.555Z,7.90
2023-04-17T07:29:05.398Z,8.00
2023-04-17T07:31:35.009Z,7.80
2023-04-17T07:34:02.981Z,8.00
2023-04-17T07:36:29.956Z,8.10
2023-04-17T07:38:56.762Z,8.20
2023-04-17T07:41:23.393Z,8.20
2023-04-17T07:43:50.759Z,8.30
2023-04-17T07:46:17.405Z,8.50
2023-04-17T07:48:45.762Z,8.40
2023-04-17T07:51:12.433Z,8.40
2023-04-17T07:53:39.099Z,8.40
2023-04-17T07:56:06.498Z,8.40
2023-04-17T07:58:37.583Z,8.50
2023-04-17T08:01:07.780Z,8.60
2023-04-17T08:03:34.686Z,8.60
2023-04-17T08:06:01.681Z,8.80
2023-04-17T08:08:28.354Z,8.80
2023-04-17T08:10:55.031Z,9.00
2023-04-17T08:13:21.703Z,9.30
2023-04-17T08:15:48.366Z,9.60
2023-04-17T08:18:15.089Z,9.80
2023-04-17T08:20:43.870Z,10.10
2023-04-17T08:23:10.652Z,10.30
2023-04-17T08:25:37.321Z,10.60
2023-04-17T08:28:06.709Z,10.90
2023-04-17T08:30:35.741Z,10.90
2023-04-17T08:33:02.524Z,11.10
2023-04-17T08:35:29.281Z,11.90
2023-04-17T08:37:58.707Z,12.50
2023-04-17T08:40:26.789Z,13.10
2023-04-17T08:42:54.879Z,13.10
2023-04-17T08:45:26.456Z,13.30
2023-04-17T08:47:53.214Z,13.10
2023-04-17T08:50:21.905Z,13.20
2023-04-17T08:52:53.337Z,12.50
2023-04-17T08:55:25.418Z,12.40
2023-04-17T08:57:59.328Z,12.60
2023-04-17T09:00:31.957Z,12.50
2023-04-17T09:03:00.196Z,11.70
2023-04-17T09:05:33.457Z,11.80
2023-04-17T09:08:20.830Z,11.20
2023-04-17T09:10:52.885Z,10.80
2023-04-17T09:13:25.278Z,10.70
2023-04-17T09:16:15.374Z,11.00
2023-04-17T09:18:46.177Z,11.80
2023-04-17T09:21:14.473Z,12.00
2023-04-17T09:23:56.945Z,11.50
2023-04-17T09:26:24.720Z,11.50
2023-04-17T09:29:13.651Z,11.80
2023-04-17T09:31:42.556Z,12.10
2023-04-17T09:34:13.359Z,12.40
2023-04-17T09:36:44.259Z,12.50
2023-04-17T09:39:20.233Z,12.40
2023-04-17T09:41:47.295Z,12.10
2023-04-17T09:44:25.789Z,12.00
2023-04-17T09:46:53.695Z,12.10
2023-04-17T09:49:40.466Z,12.80
2023-04-17T09:52:07.178Z,13.70
2023-04-17T09:54:37.884Z,14.30
2023-04-17T09:57:08.566Z,14.50
2023-04-17T09:59:44.975Z,13.90
2023-04-17T10:02:17.751Z,13.30
2023-04-17T10:04:48.216Z,13.70
2023-04-17T10:07:16.293Z,13.10
2023-04-17T10:09:47.133Z,13.50
2023-04-17T10:12:15.644Z,13.60
2023-04-17T10:14:46.689Z,13.70
2023-04-17T10:17:37.132Z,13.40
2023-04-17T10:20:19.830Z,13.30
2023-04-17T10:22:57.463Z,13.50
2023-04-17T10:25:26.216Z,13.60
2023-04-17T10:28:05.715Z,13.50
2023-04-17T10:30:54.818Z,13.50
2023-04-17T10:33:24.780Z,13.80
2023-04-17T10:35:52.385Z,13.60
2023-04-17T10:38:37.797Z,13.40
2023-04-17T10:41:09.067Z,13.80
2023-04-17T10:43:40.792Z,13.80
2023-04-17T10:46:14.452Z,14.30
2023-04-17T10:48:53.064Z,14.30
2023-04-17T10:51:29.321Z,14.00
2023-04-17T10:54:00.696Z,14.30
2023-04-17T10:56:41.174Z,14.80
2023-04-17T10:59:13.127Z,14.90
2023-04-17T11:01:50.595Z,13.90
2023-04-17T11:04:21.412Z,13.30
2023-04-17T11:06:48.662Z,12.60
2023-04-17T11:09:16.156Z,12.40
2023-04-17T11:11:44.959Z,12.30
2023-04-17T11:14:15.118Z,12.20
2023-04-17T11:16:43.276Z,12.10
2023-04-17T11:19:11.794Z,11.80
2023-04-17T11:21:47.416Z,12.00
2023-04-17T11:24:32.491Z,11.90
2023-04-17T11:27:02.796Z,12.00
2023-04-17T11:29:30.110Z,12.10
2023-04-17T11:31:57.425Z,12.20
2023-04-17T11:34:25.937Z,12.60
2023-04-17T11:37:00.717Z,12.80
2023-04-17T11:39:34.527Z,13.30
2023-04-17T11:42:05.057Z,13.10
2023-04-17T11:44:31.738Z,12.90
2023-04-17T11:47:00.569Z,12.70
2023-04-17T11:49:31.855Z,12.40
2023-04-17T11:52:02.435Z,12.50
2023-04-17T11:54:41.111Z,12.70
2023-04-17T11:57:14.577Z,12.60
2023-04-17T11:59:42.777Z,12.70
2023-04-17T12:02:10.043Z,12.60
2023-04-17T12:04:40.866Z,11.90
2023-04-17T12:07:08.949Z,11.80
2023-04-17T12:09:36.473Z,11.90
2023-04-17T12:12:07.985Z,11.80
2023-04-17T12:14:36.982Z,11.60
2023-04-17T12:17:03.666Z,11.40
2023-04-17T12:19:33.729Z,11.20
2023-04-17T12:22:00.768Z,11.00
2023-04-17T12:24:27.502Z,10.60
2023-04-17T12:26:54.481Z,10.40
2023-04-17T12:29:32.742Z,10.10
2023-04-17T12:32:10.783Z,9.90
2023-04-17T12:34:37.666Z,9.70
2023-04-17T12:37:06.484Z,9.70
2023-04-17T12:39:33.325Z,9.80
2023-04-17T12:41:59.917Z,9.80
2023-04-17T12:44:26.623Z,10.00
2023-04-17T12:46:55.206Z,10.00
2023-04-17T12:49:23.663Z,10.10
2023-04-17T12:51:51.224Z,10.40
2023-04-17T12:54:18.047Z,10.80
2023-04-17T12:56:44.776Z,10.80
2023-04-17T12:59:11.653Z,10.70
2023-04-17T13:01:39.923Z,10.60
2023-04-17T13:06:58.151Z,10.90
2023-04-17T13:09:26.506Z,11.30
2023-04-17T13:11:54.262Z,11.50
2023-04-17T13:14:21.312Z,11.60
2023-04-17T13:16:51.975Z,11.60
2023-04-17T13:19:20.655Z,11.70
2023-04-17T13:21:47.888Z,11.70
2023-04-17T13:24:14.789Z,11.60
2023-04-17T13:26:44.463Z,11.60
2023-04-17T13:29:11.506Z,11.50
2023-04-17T13:31:38.351Z,11.20
2023-04-17T13:34:04.992Z,10.80
2023-04-17T13:36:33.390Z,10.40
2023-04-17T13:39:00.057Z,10.20
2023-04-17T13:41:26.771Z,10.00
2023-04-17T13:43:55.174Z,9.80
2023-04-17T13:46:22.772Z,9.50
2023-04-17T13:48:49.454Z,9.20
2023-04-17T13:51:16.132Z,8.90
2023-04-17T13:53:42.770Z,8.60
2023-04-17T13:56:09.620Z,8.60
2023-04-17T13:58:38.186Z,8.50
2023-04-17T14:01:04.833Z,8.40
2023-04-17T14:03:31.554Z,8.40
2023-04-17T14:06:01.002Z,8.30
2023-04-17T14:08:27.645Z,8.30
2023-04-17T14:10:56.225Z,8.30
2023-04-17T14:13:22.943Z,8.40
2023-04-17T14:15:52.397Z,8.50
2023-04-17T14:18:19.542Z,8.60
2023-04-17T14:20:46.445Z,8.70
2023-04-17T14:23:13.200Z,8.90
2023-04-17T14:25:39.883Z,9.10
2023-04-17T14:28:06.576Z,9.30
2023-04-17T14:30:41.956Z,9.40
2023-04-17T14:33:10.347Z,9.30
2023-04-17T14:35:37.029Z,9.50
2023-04-17T14:38:06.607Z,9.40
2023-04-17T14:40:33.683Z,9.30
2023-04-17T14:43:02.077Z,9.30
2023-04-17T14:45:31.063Z,9.30
2023-04-17T14:47:58.182Z,9.30
2023-04-17T14:50:24.909Z,9.30
2023-04-17T14:52:52.177Z,9.20
2023-04-17T14:55:21.148Z,9.20
2023-04-17T14:57:47.872Z,9.20
2023-04-17T15:00:17.244Z,9.20
2023-04-17T15:02:44.140Z,9.30
2023-04-17T15:05:10.863Z,9.40
2023-04-17T15:07:37.569Z,9.40
2023-04-17T15:10:04.535Z,9.50
2023-04-17T15:12:31.263Z,9.50
2023-04-17T15:14:57.942Z,9.50
2023-04-17T15:17:24.630Z,9.60
2023-04-17T15:19:51.329Z,9.60
2023-04-17T15:22:19.831Z,9.60
2023-04-17T15:24:46.563Z,9.70
2023-04-17T15:27:15.283Z,9.60
2023-04-17T15:29:41.956Z,9.50
2023-04-17T15:32:08.735Z,9.50
2023-04-17T15:34:35.579Z,9.60
2023-04-17T15:37:02.261Z,9.40
2023-04-17T15:39:28.929Z,9.40
2023-04-17T15:41:57.132Z,9.40
2023-04-17T15:44:23.829Z,9.50
2023-04-17T15:46:50.747Z,9.60
2023-04-17T15:49:17.446Z,9.70
2023-04-17T15:51:44.103Z,9.70
2023-04-17T15:54:12.308Z,9.90
2023-04-17T15:56:39.631Z,9.90
2023-04-17T15:59:06.494Z,10.00
2023-04-17T16:01:33.149Z,10.00
2023-04-17T16:04:02.791Z,10.00
2023-04-17T16:06:29.626Z,10.00
2023-04-17T16:08:56.312Z,10.10
2023-04-17T16:11:24.119Z,10.10
2023-04-17T16:13:50.761Z,10.00
2023-04-17T16:16:17.487Z,10.00
2023-04-17T16:18:47.077Z,9.90
2023-04-17T16:21:14.434Z,9.80
2023-04-17T16:23:43.003Z,9.80
2023-04-17T16:26:10.463Z,9.70
2023-04-17T16:28:37.144Z,9.70
2023-04-17T16:31:03.863Z,9.60
2023-04-17T16:33:30.614Z,9.60
2023-04-17T16:35:57.422Z,9.60
2023-04-17T16:38:24.151Z,9.70
2023-04-17T16:40:53.427Z,9.70
2023-04-17T16:43:20.226Z,9.70
2023-04-17T16:45:49.701Z,9.50
2023-04-17T16:48:16.709Z,9.50
2023-04-17T16:50:45.447Z,9.40
2023-04-17T16:53:13.296Z,9.40
2023-04-17T16:55:40.092Z,9.30
2023-04-17T16:58:06.898Z,9.20
2023-04-17T17:00:33.603Z,9.30
2023-04-17T17:03:02.354Z,9.30
2023-04-17T17:05:29.305Z,9.30
2023-04-17T17:07:55.926Z,9.30
2023-04-17T17:10:28.521Z,9.30
2023-04-17T17:12:55.247Z,9.30
2023-04-17T17:15:22.038Z,9.30
2023-04-17T17:17:48.707Z,9.30
2023-04-17T17:20:15.412Z,9.30
2023-04-17T17:22:42.069Z,9.40
2023-04-17T17:25:11.162Z,9.40
2023-04-17T17:27:37.821Z,9.40
2023-04-17T17:30:05.251Z,9.40
2023-04-17T17:32:31.943Z,9.40
2023-04-17T17:35:00.466Z,9.50
2023-04-17T17:37:27.631Z,9.40
2023-04-17T17:39:54.397Z,9.30
2023-04-17T17:42:21.070Z,9.30
2023-04-17T17:44:47.779Z,9.40
2023-04-17T17:47:14.429Z,9.30
2023-04-17T17:49:41.107Z,9.30
2023-04-17T17:52:07.758Z,9.30
2023-04-17T17:54:37.892Z,9.30
2023-04-17T17:57:05.722Z,9.30
2023-04-17T17:59:32.690Z,9.30
2023-04-17T18:02:01.504Z,9.20
2023-04-17T18:04:31.041Z,9.20
2023-04-17T18:06:57.766Z,9.20
2023-04-17T18:09:24.439Z,9.20
2023-04-17T18:11:51.184Z,9.10
2023-04-17T18:14:21.037Z,9.10
2023-04-17T18:16:48.472Z,9.10
2023-04-17T18:19:15.458Z,8.90
2023-04-17T18:21:42.284Z,8.80
2023-04-17T18:24:12.005Z,8.80
2023-04-17T18:26:38.827Z,8.80
2023-04-17T18:29:05.955Z,8.80
2023-04-17T18:31:32.957Z,8.70
2023-04-17T18:34:02.420Z,8.60
2023-04-17T18:36:29.757Z,8.60
2023-04-17T18:38:56.464Z,8.60
2023-04-17T18:41:25.451Z,8.60
2023-04-17T18:43:52.087Z,8.60
2023-04-17T18:46:18.786Z,8.60
2023-04-17T18:48:45.473Z,8.50
2023-04-17T18:51:14.403Z,8.60
2023-04-17T18:53:43.196Z,8.60
2023-04-17T18:56:12.532Z,8.60
2023-04-17T18:58:40.354Z,8.60
2023-04-17T19:01:09.264Z,8.50
2023-04-17T19:03:36.892Z,8.50
2023-04-17T19:06:03.698Z,8.50
2023-04-17T19:08:30.485Z,8.40
2023-04-17T19:10:57.230Z,8.30
2023-04-17T19:13:24.340Z,8.30
2023-04-17T19:15:51.120Z,8.20
2023-04-17T19:18:17.826Z,8.10
2023-04-17T19:20:44.626Z,8.10
2023-04-17T19:23:11.515Z,8.00
2023-04-17T19:25:43.781Z,8.00
2023-04-17T19:28:10.958Z,7.90
2023-04-17T19:30:38.251Z,7.90
2023-04-17T19:33:05.049Z,7.90
2023-04-17T19:35:32.632Z,7.90
2023-04-17T19:38:02.272Z,7.90
2023-04-17T19:40:29.134Z,7.90
2023-04-17T19:43:01.041Z,7.90
2023-04-17T19:45:28.335Z,7.90
2023-04-17T19:47:57.125Z,7.90
2023-04-17T19:50:27.003Z,7.90
2023-04-17T19:52:57.888Z,7.80
2023-04-17T19:55:24.471Z,7.80
2023-04-17T19:57:52.186Z,7.80
2023-04-17T20:00:19.023Z,7.80
2023-04-17T20:02:46.215Z,7.80
2023-04-17T20:05:12.993Z,7.80
2023-04-17T20:07:40.816Z,7.80
2023-04-17T20:10:07.890Z,7.80
2023-04-17T20:12:36.712Z,7.80
2023-04-17T20:15:03.780Z,7.80
2023-04-17T20:17:30.496Z,7.80
2023-04-17T20:19:57.130Z,7.80
2023-04-17T20:22:23.826Z,7.80
2023-04-17T20:24:51.642Z,7.80
2023-04-17T20:27:18.378Z,7.80
2023-04-17T20:29:45.244Z,7.80
2023-04-17T20:32:11.974Z,7.80
2023-04-17T20:34:39.397Z,7.70
2023-04-17T20:37:06.104Z,7.70
2023-04-17T20:39:34.802Z,7.70
2023-04-17T20:42:01.990Z,7.70
2023-04-17T20:44:28.617Z,7.70
2023-04-17T20:46:55.261Z,7.70
2023-04-17T20:49:22.175Z,7.70
2023-04-17T20:51:49.125Z,7.70
2023-04-17T20:54:15.943Z,7.70
2023-04-17T20:56:43.557Z,7.70
2023-04-17T20:59:10.747Z,7.70
2023-04-17T21:01:37.443Z,7.70
2023-04-17T21:04:04.191Z,7.70
2023-04-17T21:06:30.848Z,7.70
2023-04-17T21:08:57.795Z,7.70
2023-04-17T21:11:24.433Z,7.60
2023-04-17T21:13:51.172Z,7.70
2023-04-17T21:16:17.825Z,7.70
2023-04-17T21:18:45.580Z,7.60
2023-04-17T21:21:12.275Z,7.70
2023-04-17T21:23:38.956Z,7.70
2023-04-17T21:26:05.959Z,7.70
2023-04-17T21:28:32.662Z,7.60
2023-04-17T21:30:59.397Z,7.60
2023-04-17T21:33:26.058Z,7.60
2023-04-17T21:35:52.703Z,7.60
2023-04-17T21:38:19.351Z,7.60
2023-04-17T21:43:15.547Z,7.50
2023-04-17T21:45:42.228Z,7.50
2023-04-17T21:48:08.906Z,7.50
2023-04-17T21:50:36.268Z,7.50
2023-04-17T21:53:03.130Z,7.60
2023-04-17T21:55:29.758Z,7.60
2023-04-17T21:57:56.452Z,7.60
2023-04-17T22:00:23.949Z,7.50
2023-04-17T22:02:50.808Z,7.60
2023-04-17T22:05:17.707Z,7.50
2023-04-17T22:07:54.542Z,7.50
2023-04-17T22:10:22.918Z,7.50
2023-04-17T22:12:50.909Z,7.40
2023-04-17T22:15:17.903Z,7.40
2023-04-17T22:17:44.649Z,7.40
2023-04-17T22:20:11.882Z,7.40
2023-04-17T22:22:38.546Z,7.50
2023-04-17T22:25:05.784Z,7.50
2023-04-17T22:27:32.543Z,7.40
2023-04-17T22:29:59.179Z,7.40
2023-04-17T22:32:25.933Z,7.40
2023-04-17T22:34:52.568Z,7.40
2023-04-17T22:37:19.273Z,7.40
2023-04-17T22:39:46.295Z,7.40
2023-04-17T22:42:12.913Z,7.40
2023-04-17T22:44:39.547Z,7.40
2023-04-17T22:47:06.179Z,7.40
2023-04-17T22:49:37.902Z,7.40
2023-04-17T22:52:07.880Z,7.40
2023-04-17T22:54:34.562Z,7.40
2023-04-17T22:57:02.734Z,7.40
2023-04-17T22:59:29.949Z,7.40
2023-04-17T23:01:56.780Z,7.40
2023-04-17T23:04:24.052Z,7.40
2023-04-17T23:06:50.680Z,7.40
2023-04-17T23:09:17.379Z,7.40
2023-04-17T23:11:43.982Z,7.40
2023-04-17T23:14:11.315Z,7.40
2023-04-17T23:16:38.273Z,7.40
2023-04-17T23:19:04.976Z,7.40
2023-04-17T23:21:31.774Z,7.40
2023-04-17T23:23:58.419Z,7.30
2023-04-17T23:26:25.800Z,7.30
2023-04-17T23:28:52.446Z,7.30
2023-04-17T23:31:19.151Z,7.30
2023-04-17T23:33:45.878Z,7.30
2023-04-17T23:36:13.605Z,7.30
2023-04-17T23:38:40.362Z,7.30
2023-04-17T23:41:07.072Z,7.20
2023-04-17T23:43:33.738Z,7.20
2023-04-17T23:46:00.827Z,7.20
2023-04-17T23:48:28.120Z,7.20
2023-04-17T23:50:54.953Z,7.20
2023-04-17T23:53:21.631Z,7.20
2023-04-17T23:55:48.255Z,7.20
2023-04-17T23:58:14.968Z,7.20
